Terminal Aerodrome Forecast
Issued by NWS Sterling, VA

Home | Current Version | Previous Version | Text Only | Print | Product List | Glossary On
Versions: 1 2 3 4 5 6 7 8 9 10 11 12 13 14 15 16 17 18 19 20 21 22 23 24 25
000
FTUS41 KLWX 191737
TAFIAD
TAF
KIAD 191737Z 1918/2024 10013G20KT P6SM OVC200
     FM192200 11013G20KT 5SM -RA OVC050
     FM200100 08013G24KT 3SM +RA OVC015
     FM200800 14014G26KT 2SM +RA OVC008
     FM201000 16010G18KT 3SM -RA OVC008
     FM201200 20007KT P6SM OVC008
     FM201600 21010KT P6SM BKN050
     FM202100 21012G18KT 5SM -SHRA BKN070=

USA.gov is the U.S. government's official web portal to all federal, state and local government web resources and services.